KSMF/SMF METAR and TAF weather

Enter ICAO airport designator
Station Type Date Time Source
KSMF METAR 2020/01/21 14:53 UTC NOAA

KSMF 211453Z 13007KT 6SM -RA BR BKN050 OVC060 08/06 A3010 RMK AO2 RAB01 SLP192 P0002 60002 T00830061 53007


Station Type Date Time Source
KSMF Decoded METAR 2020/01/21 14:53 UTC NOAA

SACRAMENTO INTERNATIONAL AIRPORT, CA, United States (KSMF) 38-42N 121-36W 6M
Jan 21, 2020 - 09:53 AM EST / 2020.01.21 1453 UTC
Wind: from the SE (130 degrees) at 8 MPH (7 KT):0
Visibility: 6 mile(s):0
Sky conditions: overcast
Weather: light rain; mist
Precipitation last hour: 0.02 inches
Temperature: 46.9 F (8.3 C)
Dew Point: 43.0 F (6.1 C)
Relative Humidity: 86%
Pressure (altimeter): 30.1 in. Hg (1019 hPa)
Pressure tendency: 0.02 inches (0.7 hPa) higher than three hours ago
ob: KSMF 211453Z 13007KT 6SM -RA BR BKN050 OVC060 08/06 A3010 RMK AO2 RAB01 SLP192 P0002 60002 T00830061 53007
cycle: 15

Station Type Date Time Source
KSMF TAF 2020/01/21 12:42 UTC NOAA

TAF KSMF 211139Z 2112/2212 17008KT 4SM BR SCT050 BKN100
FM211400 17011KT 4SM BR OVC050
FM212000 16011KT 4SM -RA OVC025
FM220300 16006KT 6SM BR OVC025

Example: see airport list